createdAt,value
2023-01-15T00:00:59.556Z,3.72
2023-01-15T00:07:30.658Z,3.67
2023-01-15T00:13:55.750Z,3.64
2023-01-15T00:17:13.584Z,3.61
2023-01-15T00:20:17.707Z,3.58
2023-01-15T00:23:56.922Z,3.56
2023-01-15T00:27:20.429Z,3.55
2023-01-15T00:30:31.466Z,3.56
2023-01-15T00:36:59.457Z,3.52
2023-01-15T00:39:59.561Z,3.48
2023-01-15T00:43:08.604Z,3.49
2023-01-15T00:46:05.816Z,3.52
2023-01-15T00:49:02.638Z,3.49
2023-01-15T00:52:05.672Z,3.48
2023-01-15T00:54:58.845Z,3.46
2023-01-15T00:57:54.113Z,3.48
2023-01-15T01:00:42.877Z,3.51
2023-01-15T01:03:30.106Z,3.50
2023-01-15T01:06:09.313Z,3.46
2023-01-15T01:08:45.604Z,3.44
2023-01-15T01:11:30.362Z,3.45
2023-01-15T01:14:16.753Z,3.44
2023-01-15T01:17:04.366Z,3.41
2023-01-15T01:19:46.283Z,3.38
2023-01-15T01:22:39.702Z,3.35
2023-01-15T01:25:29.302Z,3.35
2023-01-15T01:28:15.343Z,3.33
2023-01-15T01:30:58.856Z,3.32
2023-01-15T01:33:42.965Z,3.33
2023-01-15T01:36:26.419Z,3.27
2023-01-15T01:39:15.321Z,3.23
2023-01-15T01:41:55.494Z,3.21
2023-01-15T01:44:43.450Z,3.18
2023-01-15T01:47:28.648Z,3.12
2023-01-15T01:50:12.552Z,3.09
2023-01-15T01:53:12.143Z,3.06
2023-01-15T01:55:58.655Z,3.03
2023-01-15T01:58:40.688Z,3.01
2023-01-15T02:01:21.986Z,2.98
2023-01-15T02:04:02.994Z,2.95
2023-01-15T02:06:47.818Z,2.92
2023-01-15T02:09:28.461Z,2.88
2023-01-15T02:12:44.199Z,2.87
2023-01-15T02:15:32.855Z,2.86
2023-01-15T02:18:28.543Z,2.85
2023-01-15T02:21:41.173Z,2.82
2023-01-15T02:24:46.495Z,2.82
2023-01-15T02:27:21.271Z,2.82
2023-01-15T02:30:33.155Z,2.84
2023-01-15T02:33:41.820Z,2.84
2023-01-15T02:36:38.063Z,2.82
2023-01-15T02:39:32.311Z,2.85
2023-01-15T02:42:17.311Z,2.87
2023-01-15T02:45:01.568Z,2.87
2023-01-15T02:47:43.442Z,2.87
2023-01-15T02:50:27.415Z,2.86
2023-01-15T02:53:12.271Z,2.86
2023-01-15T02:55:54.028Z,2.85
2023-01-15T02:58:46.289Z,2.84
2023-01-15T03:01:32.251Z,2.83
2023-01-15T03:04:11.979Z,2.79
2023-01-15T03:07:31.956Z,2.77
2023-01-15T03:10:15.092Z,2.77
2023-01-15T03:13:10.418Z,2.77
2023-01-15T03:16:45.959Z,2.76
2023-01-15T03:19:33.835Z,2.75
2023-01-15T03:22:23.881Z,2.76
2023-01-15T03:25:16.290Z,2.76
2023-01-15T03:28:03.702Z,2.76
2023-01-15T03:30:45.158Z,2.75
2023-01-15T03:33:27.560Z,2.75
2023-01-15T03:36:18.067Z,2.76
2023-01-15T03:38:54.192Z,2.77
2023-01-15T03:42:22.862Z,2.77
2023-01-15T03:45:18.923Z,2.75
2023-01-15T03:48:11.186Z,2.74
2023-01-15T03:51:23.896Z,2.74
2023-01-15T03:54:14.266Z,2.75
2023-01-15T03:57:17.203Z,2.72
2023-01-15T04:00:01.082Z,2.72
2023-01-15T04:02:37.993Z,2.73
2023-01-15T04:05:10.716Z,2.73
2023-01-15T04:07:48.444Z,2.74
2023-01-15T04:10:24.145Z,2.74
2023-01-15T04:13:05.847Z,2.75
2023-01-15T04:15:52.084Z,2.75
2023-01-15T04:18:30.438Z,2.78
2023-01-15T04:21:10.847Z,2.81
2023-01-15T04:23:52.948Z,2.83
2023-01-15T04:26:35.283Z,2.83
2023-01-15T04:29:16.061Z,2.84
2023-01-15T04:32:00.549Z,2.86
2023-01-15T04:34:43.814Z,2.88
2023-01-15T04:37:21.767Z,2.89
2023-01-15T04:40:01.622Z,2.88
2023-01-15T04:42:55.000Z,2.86
2023-01-15T04:45:30.318Z,2.86
2023-01-15T04:48:09.104Z,2.87
2023-01-15T04:50:45.912Z,2.89
2023-01-15T04:53:24.234Z,2.89
2023-01-15T04:56:11.842Z,2.89
2023-01-15T04:58:54.493Z,2.91
2023-01-15T05:01:33.188Z,2.94
2023-01-15T05:04:15.841Z,2.96
2023-01-15T05:06:56.883Z,2.97
2023-01-15T05:09:40.945Z,2.99
2023-01-15T05:12:30.777Z,2.99
2023-01-15T05:15:13.595Z,3.01
2023-01-15T05:17:54.475Z,3.05
2023-01-15T05:20:30.922Z,3.08
2023-01-15T05:23:08.380Z,3.11
2023-01-15T05:25:51.343Z,3.13
2023-01-15T05:28:34.872Z,3.15
2023-01-15T05:31:16.865Z,3.16
2023-01-15T05:33:52.614Z,3.20
2023-01-15T05:36:26.862Z,3.24
2023-01-15T05:39:02.565Z,3.28
2023-01-15T05:41:59.063Z,3.30
2023-01-15T05:44:41.436Z,3.34
2023-01-15T05:47:23.154Z,3.36
2023-01-15T05:50:03.574Z,3.37
2023-01-15T05:52:42.432Z,3.40
2023-01-15T05:55:20.435Z,3.43
2023-01-15T05:57:56.020Z,3.46
2023-01-15T06:00:31.690Z,3.48
2023-01-15T06:03:06.748Z,3.50
2023-01-15T06:05:40.886Z,3.52
2023-01-15T06:08:16.606Z,3.52
2023-01-15T06:10:53.587Z,3.52
2023-01-15T06:13:28.546Z,3.52
2023-01-15T06:16:02.876Z,3.53
2023-01-15T06:18:39.774Z,3.54
2023-01-15T06:21:15.548Z,3.55
2023-01-15T06:24:02.703Z,3.57
2023-01-15T06:26:48.276Z,3.59
2023-01-15T06:29:31.503Z,3.61
2023-01-15T06:32:11.864Z,3.63
2023-01-15T06:34:51.688Z,3.65
2023-01-15T06:37:33.825Z,3.66
2023-01-15T06:40:37.484Z,3.68
2023-01-15T06:43:41.707Z,3.69
2023-01-15T06:46:49.053Z,3.69
2023-01-15T06:49:32.958Z,3.69
2023-01-15T06:52:22.683Z,3.71
2023-01-15T06:55:10.214Z,3.71
2023-01-15T06:57:54.214Z,3.70
2023-01-15T07:00:30.635Z,3.71
2023-01-15T07:03:31.010Z,3.70
2023-01-15T07:06:19.896Z,3.71
2023-01-15T07:08:57.010Z,3.75
2023-01-15T07:11:59.152Z,3.75
2023-01-15T07:14:42.438Z,3.68
2023-01-15T07:17:41.033Z,3.58
2023-01-15T07:20:24.637Z,3.49
2023-01-15T07:23:16.850Z,3.38
2023-01-15T07:26:18.785Z,3.35
2023-01-15T07:29:08.920Z,3.33
2023-01-15T07:31:54.647Z,3.30
2023-01-15T07:34:34.933Z,3.30
2023-01-15T07:37:30.161Z,3.32
2023-01-15T07:44:58.904Z,3.39
2023-01-15T07:48:08.969Z,3.43
2023-01-15T07:55:35.133Z,3.53
2023-01-15T07:59:01.692Z,3.58
2023-01-15T08:13:19.957Z,3.75
2023-01-15T08:16:50.847Z,3.81
2023-01-15T08:19:44.169Z,3.84
2023-01-15T08:22:29.181Z,3.87
2023-01-15T08:25:20.387Z,3.90
2023-01-15T08:28:21.319Z,3.96
2023-01-15T08:31:16.035Z,4.01
2023-01-15T08:34:06.506Z,4.05
2023-01-15T08:37:09.597Z,4.09
2023-01-15T08:40:01.589Z,4.12
2023-01-15T08:42:41.793Z,4.13
2023-01-15T08:45:23.039Z,4.15
2023-01-15T08:48:13.060Z,4.12
2023-01-15T08:50:55.962Z,4.12
2023-01-15T08:53:34.843Z,4.14
2023-01-15T08:56:33.799Z,4.17
2023-01-15T08:59:25.849Z,4.21
2023-01-15T09:02:14.085Z,4.23
2023-01-15T09:11:32.700Z,4.25
2023-01-15T09:14:57.129Z,4.25
2023-01-15T09:18:24.395Z,4.24
2023-01-15T09:22:22.623Z,4.23
2023-01-15T09:25:37.073Z,4.22
2023-01-15T09:35:52.264Z,4.03
2023-01-15T09:38:58.059Z,4.03
2023-01-15T09:42:36.904Z,4.02
2023-01-15T09:45:58.962Z,3.97
2023-01-15T09:49:32.634Z,3.93
2023-01-15T10:05:50.660Z,3.76
2023-01-15T10:13:52.502Z,3.74
2023-01-15T17:53:37.383Z,4.64
2023-01-15T17:56:33.119Z,4.62
